Mezen', Russia
Current Conditions -  °F | °C
As of 6:30 AM on Monday 22 Dec 2014 (Local Time) from ULAA Reporting Station
Snow Showers Snow Showers  
Wind Chill: 23°   Ceiling: 700
Heat Index: 23°   Visibility: 4mi
Dew Point: 23°   Wind: 2mph
Humidity: 100%   Direction: 80°E
Pressure: 29.09"   Gusts: NA
Location:  65.85°N, 44.24°E
Report Text: ULAA 220330Z 08001MPS 7000 -SHSN OVC007CB M05/M05 Q0985 BECMG2000 SHSN BR BKN005CB RMK QFE738/0984 SC038
Loading
Personal Weather Stations






























Interactive Weather Map New forecast layout! Learn more

10-Day Weather Forecast

Advertisements
Track Severe Weather on mobile